Time;durP1;ratioP1;P1;durP2;ratioP2;P2;SDS_P1;SDS_P2;PMS_P1;PMS_P2;Temp;Humidity;BMP_temperature;BMP_pressure;BME280_temperature;BME280_humidity;BME280_pressure;Samples;Min_cycle;Max_cycle;Signal;HPM_P1;HPM_P2
2023/08/21 00:00:20;;;;;;;5.30;3.47;;;15.30;99.90;;;;;;5090940;28;20113;-80
2023/08/21 00:02:47;;;;;;;4.43;2.70;;;15.30;99.90;;;;;;5090029;28;20124;-80
2023/08/21 00:05:13;;;;;;;4.10;2.65;;;15.40;99.90;;;;;;5094243;28;20509;-80
2023/08/21 00:07:38;;;;;;;5.13;2.70;;;15.30;99.90;;;;;;5093784;28;20078;-79
2023/08/21 00:10:05;;;;;;;5.35;2.40;;;15.40;99.90;;;;;;5095489;28;20040;-79
2023/08/21 00:12:30;;;;;;;4.40;2.92;;;15.30;99.90;;;;;;5104586;28;20039;-79
2023/08/21 00:14:57;;;;;;;4.60;2.30;;;15.30;99.90;;;;;;5099050;28;20044;-79
2023/08/21 00:17:23;;;;;;;4.68;2.45;;;15.30;99.90;;;;;;5101829;28;20149;-80
2023/08/21 00:19:48;;;;;;;5.85;2.55;;;15.30;99.90;;;;;;5100632;28;20162;-80
2023/08/21 00:22:14;;;;;;;7.97;1.95;;;15.20;99.90;;;;;;5093407;28;20040;-80
2023/08/21 00:24:39;;;;;;;4.03;1.95;;;15.20;99.90;;;;;;5105796;28;20085;-79
2023/08/21 00:27:05;;;;;;;6.78;2.33;;;15.20;99.90;;;;;;5101618;28;20048;-79
2023/08/21 00:29:30;;;;;;;6.13;2.40;;;15.20;99.90;;;;;;5094503;28;20063;-79
2023/08/21 00:31:56;;;;;;;5.63;2.50;;;15.00;99.90;;;;;;5095253;28;20044;-79
2023/08/21 00:34:21;;;;;;;5.70;2.40;;;15.10;99.90;;;;;;5095677;28;20117;-80
2023/08/21 00:36:47;;;;;;;4.88;2.70;;;15.00;99.90;;;;;;5101400;28;20044;-79
2023/08/21 00:39:13;;;;;;;3.05;2.70;;;15.00;99.90;;;;;;5099479;28;20135;-79
2023/08/21 00:41:38;;;;;;;4.95;2.70;;;15.00;99.90;;;;;;5101159;28;20032;-79
2023/08/21 00:44:04;;;;;;;7.43;3.10;;;14.90;99.90;;;;;;5091307;28;20100;-79
2023/08/21 00:46:31;;;;;;;3.90;2.65;;;14.90;99.90;;;;;;5101680;28;20637;-79
2023/08/21 00:48:57;;;;;;;5.22;2.40;;;14.80;99.90;;;;;;5098897;28;20497;-79
2023/08/21 00:51:23;;;;;;;4.43;2.63;;;14.80;99.90;;;;;;5098081;28;20436;-79
2023/08/21 00:53:49;;;;;;;5.82;2.65;;;14.80;99.90;;;;;;5101482;28;20047;-80
2023/08/21 00:56:15;;;;;;;4.88;2.42;;;14.80;99.90;;;;;;5097876;28;20546;-80
2023/08/21 00:58:42;;;;;;;4.95;2.40;;;14.80;99.90;;;;;;5100428;28;20071;-80
2023/08/21 01:01:07;;;;;;;5.00;2.55;;;14.70;99.90;;;;;;5104362;28;20054;-79
2023/08/21 01:03:33;;;;;;;3.85;2.50;;;14.60;99.90;;;;;;5098831;28;20032;-79
2023/08/21 01:05:59;;;;;;;3.88;2.75;;;14.70;99.90;;;;;;5096256;28;20036;-80
2023/08/21 01:08:34;;;;;;;6.88;2.58;;;14.70;99.90;;;;;;5096810;28;20032;-79
2023/08/21 01:11:18;;;;;;;5.30;2.92;;;14.60;99.90;;;;;;5094261;28;20067;-79
2023/08/21 01:14:01;;;;;;;5.63;2.83;;;14.60;99.90;;;;;;5093842;28;20048;-80
2023/08/21 01:16:28;;;;;;;2.58;2.30;;;14.60;99.90;;;;;;5099952;28;20643;-79
2023/08/21 01:18:55;;;;;;;4.18;2.88;;;14.60;99.90;;;;;;5101865;28;20063;-79
2023/08/21 01:21:20;;;;;;;4.45;2.70;;;14.60;99.90;;;;;;5098394;28;20108;-79
2023/08/21 01:23:46;;;;;;;3.72;2.53;;;14.60;99.90;;;;;;5101063;28;20431;-80
2023/08/21 01:26:11;;;;;;;2.83;2.40;;;14.60;99.90;;;;;;5093540;28;20044;-79
2023/08/21 01:28:37;;;;;;;3.75;2.33;;;14.60;99.90;;;;;;5095919;28;20086;-79
2023/08/21 01:31:18;;;;;;;5.97;2.47;;;14.50;99.90;;;;;;5097053;28;20122;-80
2023/08/21 01:33:53;;;;;;;3.88;2.70;;;14.50;99.90;;;;;;5091641;28;20846;-80
2023/08/21 01:36:20;;;;;;;5.45;2.60;;;14.50;99.90;;;;;;5097272;28;20491;-79
2023/08/21 01:38:46;;;;;;;4.07;2.22;;;14.40;99.90;;;;;;5098507;28;20790;-79
2023/08/21 01:41:11;;;;;;;5.25;2.90;;;14.50;99.90;;;;;;5092434;28;20044;-79
2023/08/21 01:43:37;;;;;;;4.28;2.65;;;14.40;99.90;;;;;;5098233;28;20031;-79
2023/08/21 01:46:03;;;;;;;3.22;2.30;;;14.40;99.90;;;;;;5096244;28;20552;-80
2023/08/21 01:48:29;;;;;;;7.22;2.80;;;14.30;99.90;;;;;;5101464;28;20702;-80
2023/08/21 01:50:54;;;;;;;3.17;2.20;;;14.30;99.90;;;;;;5103183;27;20059;-80
2023/08/21 01:53:20;;;;;;;5.03;2.30;;;14.30;99.90;;;;;;5077315;28;20071;-79
2023/08/21 01:55:45;;;;;;;3.20;2.25;;;14.30;99.90;;;;;;5096277;28;20048;-80
2023/08/21 01:58:11;;;;;;;3.58;2.15;;;14.30;99.90;;;;;;5097591;28;20044;-79
2023/08/21 02:00:37;;;;;;;3.78;2.40;;;14.30;99.90;;;;;;5100350;28;20035;-80
2023/08/21 02:03:02;;;;;;;4.63;2.35;;;14.20;99.90;;;;;;5091971;28;20064;-80
2023/08/21 02:05:28;;;;;;;4.65;2.47;;;14.20;99.90;;;;;;5096924;28;20414;-79
2023/08/21 02:07:53;;;;;;;5.82;2.33;;;14.20;99.90;;;;;;5100142;28;20066;-79
2023/08/21 02:10:19;;;;;;;4.22;2.80;;;14.20;99.90;;;;;;5100963;28;20055;-79
2023/08/21 02:12:45;;;;;;;4.57;2.33;;;14.20;99.90;;;;;;5095983;28;20043;-80
2023/08/21 02:15:10;;;;;;;4.63;2.65;;;14.20;99.90;;;;;;5095440;28;20040;-79
2023/08/21 02:17:36;;;;;;;4.18;2.40;;;14.10;99.90;;;;;;5103761;28;20051;-80
2023/08/21 02:20:01;;;;;;;4.43;2.35;;;14.10;99.90;;;;;;5090840;28;20039;-79
2023/08/21 02:22:27;;;;;;;3.30;2.50;;;14.10;99.90;;;;;;5092880;28;20127;-80
2023/08/21 02:24:53;;;;;;;4.10;2.30;;;14.10;99.90;;;;;;5090096;28;20043;-79
2023/08/21 02:27:19;;;;;;;3.42;2.30;;;14.10;99.90;;;;;;5100425;28;20480;-79
2023/08/21 02:29:44;;;;;;;3.78;2.45;;;14.10;99.90;;;;;;5098716;28;20079;-79
2023/08/21 02:32:10;;;;;;;4.25;2.33;;;14.00;99.90;;;;;;5099485;28;20040;-79
2023/08/21 02:34:36;;;;;;;4.50;2.47;;;14.00;99.90;;;;;;5092295;28;20071;-80
2023/08/21 02:37:02;;;;;;;4.32;2.50;;;13.90;99.90;;;;;;5105224;28;20055;-79
2023/08/21 02:39:28;;;;;;;4.00;2.60;;;13.90;99.90;;;;;;5108037;28;20050;-79
2023/08/21 02:41:54;;;;;;;3.88;2.28;;;13.90;99.90;;;;;;5090655;28;20044;-79
2023/08/21 02:44:19;;;;;;;4.30;2.08;;;13.90;99.90;;;;;;5099634;28;20031;-79
2023/08/21 02:46:45;;;;;;;4.07;1.95;;;13.90;99.90;;;;;;5098554;28;20052;-79
2023/08/21 02:49:10;;;;;;;3.42;2.30;;;13.90;99.90;;;;;;5107149;28;20039;-79
2023/08/21 02:51:36;;;;;;;3.65;2.38;;;13.90;99.90;;;;;;5097408;28;20035;-79
2023/08/21 02:54:01;;;;;;;3.55;2.40;;;13.90;99.90;;;;;;5096517;28;20124;-79
2023/08/21 02:56:27;;;;;;;3.50;2.22;;;13.80;99.90;;;;;;5095368;28;20036;-79
2023/08/21 02:58:53;;;;;;;6.63;2.83;;;13.80;99.90;;;;;;5098477;28;20035;-79
2023/08/21 03:01:18;;;;;;;5.57;2.80;;;13.80;99.90;;;;;;5096335;28;20043;-79
2023/08/21 03:03:44;;;;;;;4.40;2.83;;;13.80;99.90;;;;;;5092938;28;20092;-79
2023/08/21 03:06:09;;;;;;;5.70;2.83;;;14.00;99.90;;;;;;5094145;28;20039;-79
2023/08/21 03:08:35;;;;;;;3.80;2.45;;;13.80;99.90;;;;;;5101556;28;20541;-79
2023/08/21 03:11:00;;;;;;;3.47;2.38;;;13.80;99.90;;;;;;5088077;28;20058;-79
2023/08/21 03:13:26;;;;;;;5.22;2.28;;;13.80;99.90;;;;;;5090583;28;20082;-79
2023/08/21 03:15:52;;;;;;;3.05;2.50;;;13.80;99.90;;;;;;5100143;28;20075;-79
2023/08/21 03:18:18;;;;;;;3.03;2.22;;;13.70;99.90;;;;;;5098649;28;20050;-80
2023/08/21 03:20:46;;;;;;;3.95;2.40;;;13.70;99.90;;;;;;5098962;28;20044;-79
2023/08/21 03:23:13;;;;;;;2.92;2.10;;;13.70;99.90;;;;;;5096505;28;20075;-79
2023/08/21 03:25:38;;;;;;;2.72;1.90;;;13.60;99.90;;;;;;5104940;28;20032;-79
2023/08/21 03:28:04;;;;;;;4.53;2.20;;;13.60;99.90;;;;;;5091240;28;20116;-79
2023/08/21 03:30:30;;;;;;;2.42;1.73;;;13.60;99.90;;;;;;5099827;28;20035;-79
2023/08/21 03:32:55;;;;;;;3.53;2.00;;;13.50;99.90;;;;;;5099858;28;20087;-79
2023/08/21 03:35:21;;;;;;;3.20;2.10;;;13.40;99.90;;;;;;5087856;28;20044;-79
2023/08/21 03:37:46;;;;;;;2.30;1.88;;;13.40;99.90;;;;;;5087028;28;20455;-79
2023/08/21 03:40:12;;;;;;;2.38;2.00;;;13.40;99.90;;;;;;5095913;28;20037;-79
2023/08/21 03:42:38;;;;;;;3.05;2.08;;;13.40;99.90;;;;;;5091630;28;20043;-79
2023/08/21 03:45:04;;;;;;;4.10;2.42;;;13.40;99.90;;;;;;5091844;28;20040;-80
2023/08/21 03:47:30;;;;;;;4.00;1.95;;;13.30;99.90;;;;;;5103842;28;20043;-79
2023/08/21 03:49:56;;;;;;;2.67;2.10;;;13.40;99.90;;;;;;5097305;28;20059;-79
2023/08/21 03:52:21;;;;;;;2.33;1.88;;;13.30;99.90;;;;;;5098997;28;20145;-80
2023/08/21 03:54:47;;;;;;;5.93;2.25;;;13.30;99.90;;;;;;5106116;28;20444;-80
2023/08/21 03:57:13;;;;;;;4.00;2.10;;;13.30;99.90;;;;;;5091208;28;20044;-80
2023/08/21 03:59:38;;;;;;;2.08;1.70;;;13.30;99.90;;;;;;5098923;28;20623;-80
2023/08/21 04:02:04;;;;;;;3.60;1.98;;;13.30;99.90;;;;;;5088784;28;20090;-80
2023/08/21 04:04:29;;;;;;;3.38;1.90;;;13.30;99.90;;;;;;5087729;28;20032;-80
2023/08/21 04:06:55;;;;;;;2.53;2.10;;;13.30;99.90;;;;;;5092468;28;20183;-80
2023/08/21 04:09:21;;;;;;;2.05;1.85;;;13.20;99.90;;;;;;5095513;28;20028;-80
2023/08/21 04:11:46;;;;;;;3.22;2.35;;;13.20;99.90;;;;;;5094948;28;20044;-80
2023/08/21 04:14:12;;;;;;;2.30;1.80;;;13.20;99.90;;;;;;5092116;28;20051;-80
2023/08/21 04:16:37;;;;;;;3.20;2.20;;;13.20;99.90;;;;;;5091820;28;20044;-80
2023/08/21 04:19:03;;;;;;;4.13;1.98;;;13.20;99.90;;;;;;5095020;28;20130;-80
2023/08/21 04:21:29;;;;;;;4.90;2.47;;;13.20;99.90;;;;;;5096980;28;20230;-80
2023/08/21 04:23:54;;;;;;;4.05;2.20;;;13.20;99.90;;;;;;5094674;28;20215;-80
2023/08/21 04:26:20;;;;;;;4.25;2.10;;;13.20;99.90;;;;;;5092827;28;20100;-79
2023/08/21 04:28:46;;;;;;;3.20;2.17;;;13.20;99.90;;;;;;5099117;28;20565;-80
2023/08/21 04:31:11;;;;;;;2.28;1.98;;;13.20;99.90;;;;;;5095202;28;20084;-79
2023/08/21 04:33:37;;;;;;;4.38;2.13;;;13.20;99.90;;;;;;5102578;28;20067;-80
2023/08/21 04:36:02;;;;;;;4.88;2.30;;;13.20;99.90;;;;;;5093256;28;20043;-79
2023/08/21 04:38:28;;;;;;;2.50;1.92;;;13.20;99.90;;;;;;5079771;28;20409;-79
2023/08/21 04:40:54;;;;;;;4.20;2.10;;;13.20;99.90;;;;;;5093371;28;20040;-79
2023/08/21 04:43:19;;;;;;;3.20;2.00;;;13.20;99.90;;;;;;5094730;28;20401;-79
2023/08/21 04:45:50;;;;;;;2.67;1.88;;;13.20;99.90;;;;;;5080305;28;20044;-79
2023/08/21 04:48:16;;;;;;;3.15;2.20;;;13.20;99.90;;;;;;5092490;28;20093;-79
2023/08/21 04:50:42;;;;;;;2.10;1.85;;;13.20;99.90;;;;;;5095518;28;20481;-79
2023/08/21 04:53:07;;;;;;;3.25;2.08;;;13.30;99.90;;;;;;5089406;28;20039;-79
2023/08/21 04:55:36;;;;;;;4.05;2.47;;;13.30;99.90;;;;;;5092804;28;20823;-79
2023/08/21 04:58:02;;;;;;;2.85;1.88;;;13.40;99.90;;;;;;5100817;28;20075;-80
2023/08/21 05:00:27;;;;;;;3.45;2.20;;;13.40;99.90;;;;;;5097201;28;20067;-79
2023/08/21 05:02:53;;;;;;;2.88;2.00;;;13.40;99.90;;;;;;5098998;28;20048;-79
2023/08/21 05:05:20;;;;;;;2.58;1.70;;;13.40;99.90;;;;;;5093465;27;20043;-79
2023/08/21 05:07:46;;;;;;;3.92;1.85;;;13.40;99.90;;;;;;5098529;28;20089;-79
2023/08/21 05:10:11;;;;;;;4.10;2.25;;;13.40;99.90;;;;;;5099806;28;20351;-79
2023/08/21 05:12:37;;;;;;;4.35;1.90;;;13.40;99.90;;;;;;5099254;28;20044;-79
2023/08/21 05:15:02;;;;;;;3.17;2.03;;;13.50;99.90;;;;;;5092066;28;20464;-79
2023/08/21 05:17:29;;;;;;;4.82;2.15;;;13.50;99.90;;;;;;5095191;28;20040;-80
2023/08/21 05:19:55;;;;;;;4.05;2.00;;;13.50;99.90;;;;;;5093456;28;20048;-80
2023/08/21 05:22:20;;;;;;;2.08;1.63;;;13.50;99.90;;;;;;5103043;28;20046;-80
2023/08/21 05:24:46;;;;;;;2.42;1.80;;;13.60;99.90;;;;;;5097006;28;20795;-79
2023/08/21 05:27:11;;;;;;;3.05;1.90;;;13.60;99.90;;;;;;5099275;28;20043;-79
2023/08/21 05:29:37;;;;;;;3.28;1.80;;;13.70;99.90;;;;;;5093170;28;20071;-80
2023/08/21 05:32:03;;;;;;;3.70;1.80;;;13.70;99.90;;;;;;5098900;28;20048;-80
2023/08/21 05:34:28;;;;;;;2.22;1.67;;;13.70;99.90;;;;;;5090654;28;20048;-81
2023/08/21 05:36:54;;;;;;;2.78;1.80;;;13.80;99.90;;;;;;5092713;28;20044;-80
2023/08/21 05:39:20;;;;;;;4.78;1.92;;;13.80;99.90;;;;;;5096848;28;20047;-80
2023/08/21 05:41:46;;;;;;;3.10;1.85;;;13.90;99.90;;;;;;5097007;28;20602;-80
2023/08/21 05:44:11;;;;;;;3.72;2.00;;;14.00;99.90;;;;;;5100363;28;20052;-80
2023/08/21 05:46:38;;;;;;;3.38;2.08;;;14.10;99.90;;;;;;5103056;28;20078;-81
2023/08/21 05:49:03;;;;;;;4.57;2.20;;;14.20;99.90;;;;;;5094058;28;20054;-80
2023/08/21 05:51:29;;;;;;;5.70;2.30;;;14.30;99.90;;;;;;5099637;28;20047;-80
2023/08/21 05:53:55;;;;;;;3.13;2.42;;;14.50;99.90;;;;;;5098543;28;20047;-80
2023/08/21 05:56:21;;;;;;;3.35;2.22;;;15.20;99.90;;;;;;5090551;28;20052;-80
2023/08/21 05:58:47;;;;;;;3.17;2.17;;;16.20;99.90;;;;;;5096689;28;20397;-80
2023/08/21 06:01:12;;;;;;;4.55;2.45;;;17.20;99.90;;;;;;5092720;28;20048;-80
2023/08/21 06:03:38;;;;;;;3.03;2.28;;;18.00;99.90;;;;;;5101048;28;20066;-80
2023/08/21 06:06:03;;;;;;;4.90;2.55;;;18.60;99.90;;;;;;5094818;28;20032;-80
2023/08/21 06:08:29;;;;;;;6.95;3.08;;;18.90;99.90;;;;;;5087835;28;20070;-80
2023/08/21 06:10:55;;;;;;;3.92;3.38;;;18.60;99.90;;;;;;5090393;28;20059;-80
2023/08/21 06:13:21;;;;;;;3.83;2.72;;;18.10;99.90;;;;;;5100618;28;20524;-79
2023/08/21 06:15:46;;;;;;;6.75;3.20;;;17.80;99.90;;;;;;5101027;28;20138;-79
2023/08/21 06:18:12;;;;;;;8.45;3.28;;;17.50;99.90;;;;;;5089247;28;20123;-78
2023/08/21 06:20:37;;;;;;;6.93;3.00;;;17.40;99.90;;;;;;5096568;28;20039;-79
2023/08/21 06:23:03;;;;;;;8.23;3.63;;;17.30;99.90;;;;;;5105088;28;20043;-79
2023/08/21 06:25:30;;;;;;;5.78;2.92;;;17.30;99.90;;;;;;5095915;28;20048;-79
2023/08/21 06:27:56;;;;;;;3.65;2.97;;;17.20;99.90;;;;;;5100725;28;20126;-79
2023/08/21 06:30:21;;;;;;;6.05;3.28;;;17.30;99.90;;;;;;5097001;28;20122;-79
2023/08/21 06:32:47;;;;;;;10.20;3.80;;;17.30;99.90;;;;;;5096159;28;20040;-79
2023/08/21 06:35:13;;;;;;;5.93;3.35;;;17.40;99.90;;;;;;5087406;28;20056;-78
2023/08/21 06:37:39;;;;;;;7.20;3.30;;;17.40;99.90;;;;;;5099637;28;20036;-79
2023/08/21 06:40:06;;;;;;;7.45;3.47;;;17.50;99.90;;;;;;5101191;28;20048;-79
2023/08/21 06:42:32;;;;;;;8.15;3.00;;;17.60;99.90;;;;;;5097641;28;20516;-79
2023/08/21 06:44:57;;;;;;;4.85;2.90;;;17.80;99.90;;;;;;5099516;28;20039;-79
2023/08/21 06:47:23;;;;;;;7.53;3.15;;;17.80;99.90;;;;;;5091493;28;20553;-79
2023/08/21 06:49:49;;;;;;;8.05;3.20;;;18.00;99.90;;;;;;5098854;28;20838;-79
2023/08/21 06:52:14;;;;;;;4.80;2.90;;;18.10;99.90;;;;;;5098811;28;20469;-79
2023/08/21 06:54:40;;;;;;;7.28;3.03;;;18.40;99.90;;;;;;5089884;28;20032;-80
2023/08/21 06:57:05;;;;;;;8.00;3.30;;;18.40;99.90;;;;;;5099399;28;20122;-81
2023/08/21 06:59:35;;;;;;;6.90;2.78;;;18.50;99.90;;;;;;5099184;28;20066;-79
2023/08/21 07:02:05;;;;;;;10.32;2.67;;;18.60;99.90;;;;;;5096564;28;20514;-79
2023/08/21 07:04:32;;;;;;;4.78;2.30;;;18.70;99.90;;;;;;5096012;28;20887;-78
2023/08/21 07:06:58;;;;;;;6.80;2.25;;;18.90;99.90;;;;;;5095944;28;20047;-79
2023/08/21 07:09:23;;;;;;;3.97;1.90;;;19.00;99.90;;;;;;5093555;28;20044;-78
2023/08/21 07:11:49;;;;;;;6.20;2.20;;;19.10;99.90;;;;;;5095209;28;20067;-78
2023/08/21 07:14:15;;;;;;;6.22;2.25;;;19.20;99.90;;;;;;5096742;28;20043;-78
2023/08/21 07:16:40;;;;;;;5.47;1.92;;;19.30;99.90;;;;;;5094699;28;20116;-78
2023/08/21 07:19:06;;;;;;;7.15;3.00;;;19.40;99.90;;;;;;5096542;28;20103;-78
2023/08/21 07:21:34;;;;;;;3.40;2.20;;;19.60;99.90;;;;;;5096021;28;20039;-78
2023/08/21 07:24:00;;;;;;;5.22;2.10;;;19.60;99.90;;;;;;5094366;28;20497;-79
2023/08/21 07:26:25;;;;;;;6.10;2.13;;;19.80;99.90;;;;;;5097846;28;20091;-78
2023/08/21 07:28:52;;;;;;;3.60;2.03;;;19.90;99.90;;;;;;5099450;28;20068;-78
2023/08/21 07:31:18;;;;;;;5.70;2.20;;;20.10;99.90;;;;;;5096056;28;20127;-78
2023/08/21 07:33:44;;;;;;;7.88;2.30;;;20.20;99.90;;;;;;5096357;28;20520;-78
2023/08/21 07:36:09;;;;;;;8.98;2.38;;;20.30;99.90;;;;;;5096340;28;20154;-79
2023/08/21 07:38:35;;;;;;;2.97;1.60;;;20.50;99.90;;;;;;5098148;28;20086;-78
2023/08/21 07:41:10;;;;;;;4.75;1.83;;;20.50;99.90;;;;;;5101202;28;20123;-78
2023/08/21 07:43:36;;;;;;;4.43;2.10;;;20.60;99.90;;;;;;5077204;28;20044;-79
2023/08/21 07:46:07;;;;;;;4.43;1.75;;;20.80;99.90;;;;;;5092518;28;20040;-78
2023/08/21 07:48:35;;;;;;;7.20;2.00;;;20.90;99.90;;;;;;5096454;28;20044;-78
2023/08/21 07:51:00;;;;;;;6.90;1.77;;;20.90;99.90;;;;;;5095051;28;20044;-79
2023/08/21 07:53:26;;;;;;;6.05;1.67;;;21.10;99.90;;;;;;5077758;28;20631;-78
2023/08/21 07:55:52;;;;;;;3.70;1.55;;;21.10;99.90;;;;;;5095846;28;20047;-79
2023/08/21 07:58:18;;;;;;;5.93;1.65;;;21.30;99.90;;;;;;5091918;28;20043;-79
2023/08/21 08:00:43;;;;;;;5.07;1.50;;;21.40;99.90;;;;;;5095256;28;20055;-79
2023/08/21 08:03:10;;;;;;;7.00;1.50;;;21.50;99.90;;;;;;5091982;28;20074;-77
2023/08/21 08:05:36;;;;;;;2.90;1.00;;;21.50;99.90;;;;;;5101203;28;20200;-78
2023/08/21 08:08:02;;;;;;;5.05;1.20;;;21.60;99.90;;;;;;5091503;28;20206;-78
2023/08/21 08:10:27;;;;;;;4.03;1.10;;;21.80;99.90;;;;;;5092224;28;20082;-78
2023/08/21 08:12:54;;;;;;;4.95;1.30;;;22.00;99.90;;;;;;5087875;28;20048;-79
2023/08/21 08:15:20;;;;;;;3.55;1.48;;;22.10;99.90;;;;;;5097903;28;20431;-79
2023/08/21 08:17:45;;;;;;;7.18;1.58;;;22.20;99.90;;;;;;5090805;28;20063;-79
2023/08/21 08:20:12;;;;;;;3.67;1.17;;;22.20;99.90;;;;;;5098656;28;20044;-79
2023/08/21 08:22:38;;;;;;;4.22;1.25;;;22.40;99.90;;;;;;5094314;28;20036;-80
2023/08/21 08:25:05;;;;;;;3.15;1.10;;;22.40;99.90;;;;;;5094605;28;20502;-78
2023/08/21 08:27:32;;;;;;;3.58;1.60;;;22.40;99.90;;;;;;5102509;28;20063;-79
2023/08/21 08:29:58;;;;;;;4.95;1.77;;;22.50;99.90;;;;;;5096865;28;20058;-79
2023/08/21 08:32:23;;;;;;;4.45;1.17;;;22.60;99.90;;;;;;5091825;28;20105;-79
2023/08/21 08:34:49;;;;;;;3.22;1.35;;;22.60;99.90;;;;;;5097857;28;20061;-80
2023/08/21 08:37:14;;;;;;;6.05;1.20;;;22.70;99.90;;;;;;5095074;28;20052;-79
2023/08/21 08:39:40;;;;;;;4.65;1.23;;;22.70;99.90;;;;;;5104148;28;20649;-79
2023/08/21 08:42:07;;;;;;;5.30;1.38;;;22.60;99.90;;;;;;5094993;28;20135;-79
2023/08/21 08:44:35;;;;;;;3.00;1.25;;;22.70;99.90;;;;;;5089345;28;20623;-79
2023/08/21 08:47:02;;;;;;;3.28;1.13;;;22.90;99.90;;;;;;5095947;28;20616;-78
2023/08/21 08:49:28;;;;;;;3.78;1.15;;;23.00;99.90;;;;;;5090231;28;20071;-79
2023/08/21 08:51:54;;;;;;;4.82;1.20;;;23.00;99.90;;;;;;5079817;28;20060;-79
2023/08/21 08:54:22;;;;;;;3.55;1.20;;;23.10;99.90;;;;;;5075447;28;20052;-80
2023/08/21 08:56:47;;;;;;;4.50;1.20;;;23.30;99.90;;;;;;5076497;28;20059;-79
2023/08/21 08:59:14;;;;;;;4.22;1.20;;;23.40;99.90;;;;;;5076651;28;20037;-80
2023/08/21 09:01:41;;;;;;;4.30;1.20;;;23.40;99.90;;;;;;5080438;28;20049;-79
2023/08/21 09:04:07;;;;;;;3.08;1.17;;;23.50;99.90;;;;;;5075306;28;20052;-79
2023/08/21 09:06:33;;;;;;;3.17;0.70;;;23.60;99.90;;;;;;5077025;28;20091;-79
2023/08/21 09:08:59;;;;;;;3.25;0.90;;;23.70;99.90;;;;;;5066103;28;20055;-78
2023/08/21 09:11:25;;;;;;;2.83;1.10;;;23.70;99.90;;;;;;5077110;28;20047;-79
2023/08/21 09:13:52;;;;;;;3.63;1.17;;;23.70;99.90;;;;;;5072026;28;20053;-80
2023/08/21 09:16:23;;;;;;;4.07;1.23;;;23.80;99.90;;;;;;5081035;28;20049;-80
2023/08/21 09:18:50;;;;;;;1.80;0.77;;;23.90;99.90;;;;;;5072143;28;20048;-79
2023/08/21 09:21:20;;;;;;;4.57;1.08;;;23.90;99.90;;;;;;5076732;28;20049;-80
2023/08/21 09:23:46;;;;;;;2.47;1.00;;;23.90;99.90;;;;;;5068140;28;20160;-80
2023/08/21 09:26:20;;;;;;;2.33;0.90;;;24.00;99.90;;;;;;5080585;28;20098;-80
2023/08/21 09:28:46;;;;;;;2.25;1.00;;;24.10;99.90;;;;;;5077435;28;20253;-80
2023/08/21 09:31:12;;;;;;;2.97;0.90;;;24.10;99.90;;;;;;5080570;28;20095;-80
2023/08/21 09:33:37;;;;;;;3.45;1.10;;;24.10;99.90;;;;;;5073115;28;20040;-79
2023/08/21 09:36:07;;;;;;;3.40;1.10;;;24.20;99.90;;;;;;5076990;28;20084;-79
2023/08/21 09:38:39;;;;;;;2.53;1.00;;;24.20;99.80;;;;;;5079113;28;20113;-81
2023/08/21 09:41:05;;;;;;;2.17;0.80;;;24.30;99.40;;;;;;5087822;28;20108;-81
2023/08/21 09:43:31;;;;;;;3.35;1.00;;;24.40;99.40;;;;;;5075391;28;20052;-81
2023/08/21 09:45:57;;;;;;;2.60;1.05;;;24.50;99.30;;;;;;5077097;28;20052;-81
2023/08/21 09:48:24;;;;;;;3.08;1.02;;;24.70;98.80;;;;;;5079108;28;20040;-81
2023/08/21 09:50:51;;;;;;;3.50;1.10;;;24.60;98.20;;;;;;5074956;28;20056;-81
2023/08/21 09:53:17;;;;;;;3.63;1.10;;;24.50;98.10;;;;;;5075069;28;20752;-81
2023/08/21 09:55:43;;;;;;;2.78;0.90;;;24.60;98.00;;;;;;5079077;28;20052;-81
2023/08/21 09:58:10;;;;;;;3.20;1.02;;;24.60;97.50;;;;;;5083029;28;20048;-81
2023/08/21 10:00:37;;;;;;;2.05;0.88;;;24.80;97.30;;;;;;5076745;28;20048;-81
2023/08/21 10:03:06;;;;;;;2.83;0.90;;;24.80;96.40;;;;;;5070120;28;20132;-81
2023/08/21 10:05:33;;;;;;;3.90;0.98;;;24.80;95.80;;;;;;5071309;28;20131;-81
2023/08/21 10:08:03;;;;;;;2.47;1.00;;;24.90;95.40;;;;;;5076874;28;20089;-81
2023/08/21 10:10:34;;;;;;;2.42;0.95;;;24.90;94.70;;;;;;5076423;28;20054;-81
2023/08/21 10:13:01;;;;;;;3.30;1.20;;;25.00;95.30;;;;;;5078721;28;20437;-81
2023/08/21 10:15:32;;;;;;;5.15;1.42;;;25.00;95.60;;;;;;5076532;28;20102;-81
2023/08/21 10:17:58;;;;;;;2.03;1.00;;;25.00;95.30;;;;;;5079546;28;20036;-80
2023/08/21 10:20:25;;;;;;;2.10;0.80;;;25.10;94.30;;;;;;5080167;28;20048;-81
2023/08/21 10:23:01;;;;;;;2.08;0.98;;;25.20;93.80;;;;;;5075156;28;20462;-82
2023/08/21 10:25:27;;;;;;;2.53;1.13;;;25.20;94.10;;;;;;5087622;28;20197;-81
2023/08/21 10:27:58;;;;;;;2.60;1.05;;;25.30;94.00;;;;;;5078067;28;20498;-81
2023/08/21 10:30:26;;;;;;;2.75;1.08;;;25.30;93.60;;;;;;5076587;28;20575;-80
2023/08/21 10:32:54;;;;;;;2.40;1.20;;;25.30;94.10;;;;;;5084346;28;20098;-80
2023/08/21 10:35:28;;;;;;;6.70;1.52;;;25.40;93.90;;;;;;5069681;28;20131;-79
2023/08/21 10:38:17;;;;;;;3.13;0.93;;;25.30;93.30;;;;;;5079184;28;20169;-80
2023/08/21 10:41:08;;;;;;;3.13;1.00;;;25.40;91.40;;;;;;5074846;28;20105;-80
2023/08/21 10:43:40;;;;;;;3.53;1.20;;;25.40;91.80;;;;;;5072328;28;20155;-80
2023/08/21 10:46:07;;;;;;;6.25;1.40;;;25.30;91.80;;;;;;5086759;28;20486;-79
2023/08/21 10:48:34;;;;;;;4.05;1.42;;;25.40;91.90;;;;;;5068020;28;20044;-80
2023/08/21 10:51:03;;;;;;;4.10;1.42;;;25.50;91.60;;;;;;5083378;28;20051;-80
2023/08/21 10:53:29;;;;;;;5.05;1.38;;;25.40;90.40;;;;;;5068542;28;20189;-80
2023/08/21 10:55:55;;;;;;;4.43;1.33;;;25.50;90.60;;;;;;5072132;28;20449;-80
2023/08/21 10:58:21;;;;;;;4.80;1.40;;;25.50;90.10;;;;;;5086216;28;20119;-81
2023/08/21 11:00:47;;;;;;;2.45;1.00;;;25.50;90.20;;;;;;5075336;28;20103;-81
2023/08/21 11:03:15;;;;;;;2.35;1.50;;;25.50;89.70;;;;;;5075639;28;20039;-79
2023/08/21 11:05:40;;;;;;;3.92;1.45;;;25.50;88.90;;;;;;5081230;28;20035;-80
2023/08/21 11:08:06;;;;;;;2.40;1.25;;;25.50;88.30;;;;;;5072188;28;20052;-80
2023/08/21 11:10:33;;;;;;;3.17;1.40;;;25.50;89.00;;;;;;5064363;28;20569;-79
2023/08/21 11:12:59;;;;;;;3.35;1.60;;;25.60;88.50;;;;;;5074696;28;20062;-79
2023/08/21 11:15:27;;;;;;;3.03;1.30;;;25.60;88.00;;;;;;5067403;28;20097;-80
2023/08/21 11:18:00;;;;;;;4.15;1.60;;;25.80;87.30;;;;;;5077659;28;20049;-80
2023/08/21 11:20:30;;;;;;;3.53;1.30;;;25.80;86.40;;;;;;5078980;28;20047;-81
2023/08/21 11:23:02;;;;;;;31.35;9.57;;;25.80;86.60;;;;;;5070675;28;20049;-80
2023/08/21 11:25:29;;;;;;;3.63;1.50;;;25.80;86.70;;;;;;5073661;28;20040;-80
2023/08/21 11:27:55;;;;;;;3.80;1.60;;;25.90;87.50;;;;;;5081546;28;20119;-80
2023/08/21 11:30:24;;;;;;;2.45;1.30;;;26.00;87.40;;;;;;5071763;28;20044;-78
2023/08/21 11:33:08;;;;;;;4.20;1.63;;;26.00;86.30;;;;;;5078862;28;20055;-77
2023/08/21 11:35:33;;;;;;;4.47;1.40;;;26.10;85.90;;;;;;5067253;28;20059;-80
2023/08/21 11:37:59;;;;;;;2.80;1.20;;;26.20;87.10;;;;;;5062212;28;20367;-80
2023/08/21 11:40:24;;;;;;;2.78;1.30;;;26.30;87.20;;;;;;5070474;28;20071;-78
2023/08/21 11:42:52;;;;;;;4.45;1.10;;;26.20;86.50;;;;;;5071756;28;20060;-80
2023/08/21 11:45:21;;;;;;;2.92;1.13;;;26.40;84.60;;;;;;5082628;28;20052;-79
2023/08/21 11:47:46;;;;;;;1.95;1.15;;;26.50;83.30;;;;;;5073851;28;20137;-79
2023/08/21 11:50:15;;;;;;;3.40;1.20;;;26.50;79.70;;;;;;5075235;28;20158;-82
2023/08/21 11:52:42;;;;;;;2.22;0.98;;;26.60;79.10;;;;;;5080781;28;20044;-82
2023/08/21 11:55:10;;;;;;;4.30;1.50;;;26.50;78.90;;;;;;5070586;28;20041;-82
2023/08/21 11:57:49;;;;;;;3.83;1.08;;;26.40;79.60;;;;;;5083234;28;20036;-83
2023/08/21 12:00:18;;;;;;;5.13;1.27;;;26.30;77.40;;;;;;5073890;28;20048;-80
2023/08/21 12:02:57;;;;;;;2.33;1.05;;;26.40;79.30;;;;;;5082975;28;20051;-82
2023/08/21 12:05:23;;;;;;;3.28;1.55;;;26.60;79.80;;;;;;5076028;28;20164;-81
2023/08/21 12:07:48;;;;;;;3.38;1.00;;;26.60;78.50;;;;;;5068247;28;20505;-82
2023/08/21 12:10:14;;;;;;;3.45;1.02;;;26.60;79.70;;;;;;5077981;28;20029;-81
2023/08/21 12:12:40;;;;;;;2.97;0.90;;;26.70;78.50;;;;;;5078552;28;20044;-79
2023/08/21 12:15:06;;;;;;;3.30;1.33;;;26.50;77.30;;;;;;5079185;28;20136;-80
2023/08/21 12:17:31;;;;;;;2.35;0.98;;;26.50;76.60;;;;;;5073104;28;20105;-80
2023/08/21 12:19:59;;;;;;;4.88;1.30;;;26.50;77.60;;;;;;5079296;28;20494;-81
2023/08/21 12:22:25;;;;;;;3.97;1.20;;;26.20;78.30;;;;;;5070911;28;20036;-81
2023/08/21 12:24:51;;;;;;;3.40;1.33;;;26.10;78.80;;;;;;5086010;28;20044;-80
2023/08/21 12:27:16;;;;;;;6.55;1.33;;;25.80;80.20;;;;;;5072617;28;20052;-80
2023/08/21 12:29:42;;;;;;;5.07;1.52;;;25.70;80.90;;;;;;5078131;28;20055;-80
2023/08/21 12:32:07;;;;;;;4.28;1.30;;;25.50;82.00;;;;;;5078690;28;20032;-80
2023/08/21 12:34:33;;;;;;;3.67;1.20;;;25.60;84.10;;;;;;5078611;28;20048;-80
2023/08/21 12:37:00;;;;;;;4.22;1.23;;;25.80;83.40;;;;;;5081754;28;20044;-80
2023/08/21 12:39:26;;;;;;;3.33;1.20;;;26.00;81.00;;;;;;5072139;28;20060;-80
2023/08/21 12:41:51;;;;;;;4.43;1.00;;;26.20;81.10;;;;;;5085725;28;20044;-81